sensor_id;sensor_type;location;lat;lon;timestamp;temperature;humidity
9776;DHT22;4927;52.472;13.108;2022-10-15T00:03:45;13.30;99.90
9776;DHT22;4927;52.472;13.108;2022-10-15T00:08:51;13.20;99.90
9776;DHT22;4927;52.472;13.108;2022-10-15T00:13:58;13.20;99.90
9776;DHT22;4927;52.472;13.108;2022-10-15T00:19:04;13.20;99.90
9776;DHT22;4927;52.472;13.108;2022-10-15T00:24:10;13.20;99.90
9776;DHT22;4927;52.472;13.108;2022-10-15T00:29:16;13.20;99.90
9776;DHT22;4927;52.472;13.108;2022-10-15T00:34:23;13.20;99.90
9776;DHT22;4927;52.472;13.108;2022-10-15T00:39:29;13.20;99.90
9776;DHT22;4927;52.472;13.108;2022-10-15T00:44:52;13.20;99.90
9776;DHT22;4927;52.472;13.108;2022-10-15T00:50:15;13.20;99.90
9776;DHT22;4927;52.472;13.108;2022-10-15T00:55:28;13.20;99.90
9776;DHT22;4927;52.472;13.108;2022-10-15T01:00:33;13.20;99.90
9776;DHT22;4927;52.472;13.108;2022-10-15T01:05:39;13.20;99.90
9776;DHT22;4927;52.472;13.108;2022-10-15T01:10:52;13.20;99.90
9776;DHT22;4927;52.472;13.108;2022-10-15T01:15:57;13.10;99.90
9776;DHT22;4927;52.472;13.108;2022-10-15T01:21:09;13.20;99.90
9776;DHT22;4927;52.472;13.108;2022-10-15T01:37:10;13.20;99.90
9776;DHT22;4927;52.472;13.108;2022-10-15T01:42:22;13.30;99.90
9776;DHT22;4927;52.472;13.108;2022-10-15T01:47:29;13.30;99.90
9776;DHT22;4927;52.472;13.108;2022-10-15T01:52:33;13.30;99.90
9776;DHT22;4927;52.472;13.108;2022-10-15T01:57:39;13.30;99.90
9776;DHT22;4927;52.472;13.108;2022-10-15T02:02:45;13.20;99.90
9776;DHT22;4927;52.472;13.108;2022-10-15T02:08:13;13.20;99.90
9776;DHT22;4927;52.472;13.108;2022-10-15T02:13:23;13.30;99.90
9776;DHT22;4927;52.472;13.108;2022-10-15T02:18:28;13.30;99.90
9776;DHT22;4927;52.472;13.108;2022-10-15T02:23:53;13.30;99.90
9776;DHT22;4927;52.472;13.108;2022-10-15T02:28:58;13.20;99.90
9776;DHT22;4927;52.472;13.108;2022-10-15T02:34:05;13.20;99.90
9776;DHT22;4927;52.472;13.108;2022-10-15T02:39:11;13.20;99.90
9776;DHT22;4927;52.472;13.108;2022-10-15T02:44:16;13.20;99.90
9776;DHT22;4927;52.472;13.108;2022-10-15T02:49:23;13.20;99.90
9776;DHT22;4927;52.472;13.108;2022-10-15T02:54:29;13.20;99.90
9776;DHT22;4927;52.472;13.108;2022-10-15T02:59:35;13.10;99.90
9776;DHT22;4927;52.472;13.108;2022-10-15T03:04:41;13.20;99.90
9776;DHT22;4927;52.472;13.108;2022-10-15T03:09:48;13.20;99.90
9776;DHT22;4927;52.472;13.108;2022-10-15T03:14:54;13.20;99.90
9776;DHT22;4927;52.472;13.108;2022-10-15T03:20:00;13.20;99.90
9776;DHT22;4927;52.472;13.108;2022-10-15T03:25:07;13.20;99.90
9776;DHT22;4927;52.472;13.108;2022-10-15T03:30:13;13.10;99.90
9776;DHT22;4927;52.472;13.108;2022-10-15T03:35:17;13.00;99.90
9776;DHT22;4927;52.472;13.108;2022-10-15T03:40:22;13.00;99.90
9776;DHT22;4927;52.472;13.108;2022-10-15T03:45:28;13.00;99.90
9776;DHT22;4927;52.472;13.108;2022-10-15T03:50:34;12.90;99.90
9776;DHT22;4927;52.472;13.108;2022-10-15T03:55:40;12.80;99.90
9776;DHT22;4927;52.472;13.108;2022-10-15T04:00:47;12.70;99.90
9776;DHT22;4927;52.472;13.108;2022-10-15T04:05:54;12.70;99.90
9776;DHT22;4927;52.472;13.108;2022-10-15T04:11:01;12.60;99.90
9776;DHT22;4927;52.472;13.108;2022-10-15T04:16:07;12.50;99.90
9776;DHT22;4927;52.472;13.108;2022-10-15T04:21:14;12.50;99.90
9776;DHT22;4927;52.472;13.108;2022-10-15T04:26:20;12.50;99.90
9776;DHT22;4927;52.472;13.108;2022-10-15T04:31:27;12.50;99.90
9776;DHT22;4927;52.472;13.108;2022-10-15T04:36:33;12.50;99.90
9776;DHT22;4927;52.472;13.108;2022-10-15T04:41:39;12.60;99.90
9776;DHT22;4927;52.472;13.108;2022-10-15T04:46:45;12.60;99.90
9776;DHT22;4927;52.472;13.108;2022-10-15T04:51:52;12.60;99.90
9776;DHT22;4927;52.472;13.108;2022-10-15T04:56:58;12.60;99.90
9776;DHT22;4927;52.472;13.108;2022-10-15T05:02:04;12.50;99.90
9776;DHT22;4927;52.472;13.108;2022-10-15T05:07:10;12.50;99.90
9776;DHT22;4927;52.472;13.108;2022-10-15T05:12:17;12.40;99.90
9776;DHT22;4927;52.472;13.108;2022-10-15T05:17:21;12.40;99.90
9776;DHT22;4927;52.472;13.108;2022-10-15T05:22:27;12.30;99.90
9776;DHT22;4927;52.472;13.108;2022-10-15T05:27:34;12.20;99.90
9776;DHT22;4927;52.472;13.108;2022-10-15T05:32:40;12.10;99.90
9776;DHT22;4927;52.472;13.108;2022-10-15T05:37:47;11.90;99.90
9776;DHT22;4927;52.472;13.108;2022-10-15T05:42:53;11.80;99.90
9776;DHT22;4927;52.472;13.108;2022-10-15T05:47:59;11.70;99.90
9776;DHT22;4927;52.472;13.108;2022-10-15T05:53:03;11.60;99.90
9776;DHT22;4927;52.472;13.108;2022-10-15T05:58:09;11.40;99.90
9776;DHT22;4927;52.472;13.108;2022-10-15T06:03:16;11.40;99.90
9776;DHT22;4927;52.472;13.108;2022-10-15T06:08:23;11.30;99.90
9776;DHT22;4927;52.472;13.108;2022-10-15T06:13:30;11.40;99.90
9776;DHT22;4927;52.472;13.108;2022-10-15T06:18:36;11.40;99.90
9776;DHT22;4927;52.472;13.108;2022-10-15T06:23:42;11.60;99.90
9776;DHT22;4927;52.472;13.108;2022-10-15T06:28:49;11.90;99.90
9776;DHT22;4927;52.472;13.108;2022-10-15T06:33:55;11.90;99.90
9776;DHT22;4927;52.472;13.108;2022-10-15T06:39:02;11.90;99.90
9776;DHT22;4927;52.472;13.108;2022-10-15T06:44:08;11.90;99.90
9776;DHT22;4927;52.472;13.108;2022-10-15T06:49:15;11.90;99.90
9776;DHT22;4927;52.472;13.108;2022-10-15T06:54:21;11.90;99.90
9776;DHT22;4927;52.472;13.108;2022-10-15T06:59:27;12.00;99.90
9776;DHT22;4927;52.472;13.108;2022-10-15T07:04:33;12.20;99.90
9776;DHT22;4927;52.472;13.108;2022-10-15T07:09:40;12.50;99.90
9776;DHT22;4927;52.472;13.108;2022-10-15T07:14:47;12.60;99.90
9776;DHT22;4927;52.472;13.108;2022-10-15T07:19:52;12.80;99.90
9776;DHT22;4927;52.472;13.108;2022-10-15T07:24:58;13.00;99.90
9776;DHT22;4927;52.472;13.108;2022-10-15T07:30:04;13.20;99.90
9776;DHT22;4927;52.472;13.108;2022-10-15T07:35:10;13.40;99.90
9776;DHT22;4927;52.472;13.108;2022-10-15T07:40:17;13.60;99.90
9776;DHT22;4927;52.472;13.108;2022-10-15T07:45:23;13.70;99.90
9776;DHT22;4927;52.472;13.108;2022-10-15T07:50:29;13.60;99.90
9776;DHT22;4927;52.472;13.108;2022-10-15T07:55:35;13.70;99.90
9776;DHT22;4927;52.472;13.108;2022-10-15T08:00:42;13.80;99.90
9776;DHT22;4927;52.472;13.108;2022-10-15T08:05:48;14.00;99.90
9776;DHT22;4927;52.472;13.108;2022-10-15T08:10:54;14.00;99.90
9776;DHT22;4927;52.472;13.108;2022-10-15T08:16:00;14.00;99.90
9776;DHT22;4927;52.472;13.108;2022-10-15T08:21:07;14.20;99.90
9776;DHT22;4927;52.472;13.108;2022-10-15T08:26:13;14.50;99.90
9776;DHT22;4927;52.472;13.108;2022-10-15T08:31:19;14.90;99.90
9776;DHT22;4927;52.472;13.108;2022-10-15T08:36:25;15.20;99.90
9776;DHT22;4927;52.472;13.108;2022-10-15T08:41:37;15.70;99.90
9776;DHT22;4927;52.472;13.108;2022-10-15T08:46:42;15.70;99.90
9776;DHT22;4927;52.472;13.108;2022-10-15T08:51:50;15.90;99.90
9776;DHT22;4927;52.472;13.108;2022-10-15T08:57:10;16.10;99.90
9776;DHT22;4927;52.472;13.108;2022-10-15T09:02:03;16.30;99.90
9776;DHT22;4927;52.472;13.108;2022-10-15T09:07:25;16.50;99.90
9776;DHT22;4927;52.472;13.108;2022-10-15T09:18:02;16.60;99.90
9776;DHT22;4927;52.472;13.108;2022-10-15T09:23:12;16.60;99.90
9776;DHT22;4927;52.472;13.108;2022-10-15T09:28:16;16.70;99.90
9776;DHT22;4927;52.472;13.108;2022-10-15T09:33:45;16.90;99.90
9776;DHT22;4927;52.472;13.108;2022-10-15T09:39:00;17.00;99.90
9776;DHT22;4927;52.472;13.108;2022-10-15T09:44:04;17.00;99.90
9776;DHT22;4927;52.472;13.108;2022-10-15T09:49:13;17.10;99.90
9776;DHT22;4927;52.472;13.108;2022-10-15T09:59:53;17.30;99.90
9776;DHT22;4927;52.472;13.108;2022-10-15T10:05:16;17.40;99.90
9776;DHT22;4927;52.472;13.108;2022-10-15T10:34:40;18.20;99.90
9776;DHT22;4927;52.472;13.108;2022-10-15T10:45:16;18.30;99.90
9776;DHT22;4927;52.472;13.108;2022-10-15T10:50:28;18.50;99.90
9776;DHT22;4927;52.472;13.108;2022-10-15T10:55:36;18.70;99.90
9776;DHT22;4927;52.472;13.108;2022-10-15T11:00:40;18.80;99.90
9776;DHT22;4927;52.472;13.108;2022-10-15T11:05:46;18.80;99.90
9776;DHT22;4927;52.472;13.108;2022-10-15T11:16:33;18.80;99.90
9776;DHT22;4927;52.472;13.108;2022-10-15T11:22:07;18.80;99.90
9776;DHT22;4927;52.472;13.108;2022-10-15T11:27:21;18.90;99.90
9776;DHT22;4927;52.472;13.108;2022-10-15T11:32:40;18.80;99.90
9776;DHT22;4927;52.472;13.108;2022-10-15T11:38:02;19.00;99.90
9776;DHT22;4927;52.472;13.108;2022-10-15T11:43:27;19.20;99.90
9776;DHT22;4927;52.472;13.108;2022-10-15T11:48:36;18.80;99.90
9776;DHT22;4927;52.472;13.108;2022-10-15T11:59:26;18.90;99.90
9776;DHT22;4927;52.472;13.108;2022-10-15T12:04:46;19.10;99.90
9776;DHT22;4927;52.472;13.108;2022-10-15T12:09:56;19.10;99.90
9776;DHT22;4927;52.472;13.108;2022-10-15T12:20:19;19.60;99.90
9776;DHT22;4927;52.472;13.108;2022-10-15T12:25:40;19.60;99.90
9776;DHT22;4927;52.472;13.108;2022-10-15T12:30:53;19.40;99.90
9776;DHT22;4927;52.472;13.108;2022-10-15T12:35:59;19.40;99.90
9776;DHT22;4927;52.472;13.108;2022-10-15T12:41:08;19.40;99.90
9776;DHT22;4927;52.472;13.108;2022-10-15T12:46:13;19.40;99.90
9776;DHT22;4927;52.472;13.108;2022-10-15T12:51:31;19.40;99.90
9776;DHT22;4927;52.472;13.108;2022-10-15T12:56:37;19.30;99.90
9776;DHT22;4927;52.472;13.108;2022-10-15T13:01:50;19.10;99.90
9776;DHT22;4927;52.472;13.108;2022-10-15T13:07:01;19.10;99.90
9776;DHT22;4927;52.472;13.108;2022-10-15T13:12:03;19.20;99.90
9776;DHT22;4927;52.472;13.108;2022-10-15T13:17:14;19.10;99.90
9776;DHT22;4927;52.472;13.108;2022-10-15T13:22:35;19.00;99.90
9776;DHT22;4927;52.472;13.108;2022-10-15T13:27:41;19.00;99.90
9776;DHT22;4927;52.472;13.108;2022-10-15T13:32:48;18.80;99.90
9776;DHT22;4927;52.472;13.108;2022-10-15T13:37:56;18.80;99.90
9776;DHT22;4927;52.472;13.108;2022-10-15T13:43:03;18.80;99.90
9776;DHT22;4927;52.472;13.108;2022-10-15T13:48:10;18.70;99.90
9776;DHT22;4927;52.472;13.108;2022-10-15T13:53:24;18.70;99.90
9776;DHT22;4927;52.472;13.108;2022-10-15T13:58:30;18.70;99.90
9776;DHT22;4927;52.472;13.108;2022-10-15T14:03:36;18.60;99.90
9776;DHT22;4927;52.472;13.108;2022-10-15T14:08:42;18.60;99.90
9776;DHT22;4927;52.472;13.108;2022-10-15T14:13:49;18.40;99.90
9776;DHT22;4927;52.472;13.108;2022-10-15T14:18:57;18.20;99.90
9776;DHT22;4927;52.472;13.108;2022-10-15T14:24:14;18.20;99.90
9776;DHT22;4927;52.472;13.108;2022-10-15T14:29:23;18.00;99.90
9776;DHT22;4927;52.472;13.108;2022-10-15T14:34:41;17.90;99.90
9776;DHT22;4927;52.472;13.108;2022-10-15T14:39:47;17.80;99.90
9776;DHT22;4927;52.472;13.108;2022-10-15T14:44:54;17.90;99.90
9776;DHT22;4927;52.472;13.108;2022-10-15T14:50:00;17.90;99.90
9776;DHT22;4927;52.472;13.108;2022-10-15T14:55:11;17.70;99.90
9776;DHT22;4927;52.472;13.108;2022-10-15T15:05:52;17.60;99.90
9776;DHT22;4927;52.472;13.108;2022-10-15T15:10:59;17.60;99.90
9776;DHT22;4927;52.472;13.108;2022-10-15T15:16:05;17.70;99.90
9776;DHT22;4927;52.472;13.108;2022-10-15T15:21:14;17.50;99.90
9776;DHT22;4927;52.472;13.108;2022-10-15T15:26:18;17.40;99.90
9776;DHT22;4927;52.472;13.108;2022-10-15T15:31:24;17.30;99.90
9776;DHT22;4927;52.472;13.108;2022-10-15T15:36:31;17.00;99.90
9776;DHT22;4927;52.472;13.108;2022-10-15T15:41:38;17.00;99.90
9776;DHT22;4927;52.472;13.108;2022-10-15T15:46:44;17.00;99.90
9776;DHT22;4927;52.472;13.108;2022-10-15T15:51:50;16.80;99.90
9776;DHT22;4927;52.472;13.108;2022-10-15T15:56:57;16.70;99.90
9776;DHT22;4927;52.472;13.108;2022-10-15T16:02:03;16.40;99.90
9776;DHT22;4927;52.472;13.108;2022-10-15T16:07:09;16.30;99.90
9776;DHT22;4927;52.472;13.108;2022-10-15T16:12:15;16.10;99.90
9776;DHT22;4927;52.472;13.108;2022-10-15T16:17:22;16.00;99.90
9776;DHT22;4927;52.472;13.108;2022-10-15T16:22:29;15.70;99.90
9776;DHT22;4927;52.472;13.108;2022-10-15T16:27:35;15.60;99.90
9776;DHT22;4927;52.472;13.108;2022-10-15T16:32:41;15.50;99.90
9776;DHT22;4927;52.472;13.108;2022-10-15T16:37:48;15.40;99.90
9776;DHT22;4927;52.472;13.108;2022-10-15T16:42:54;15.30;99.90
9776;DHT22;4927;52.472;13.108;2022-10-15T16:48:00;15.10;99.90
9776;DHT22;4927;52.472;13.108;2022-10-15T16:53:06;14.90;99.90
9776;DHT22;4927;52.472;13.108;2022-10-15T16:58:13;14.80;99.90
9776;DHT22;4927;52.472;13.108;2022-10-15T17:03:19;14.70;99.90
9776;DHT22;4927;52.472;13.108;2022-10-15T17:08:27;14.60;99.90
9776;DHT22;4927;52.472;13.108;2022-10-15T17:13:32;14.60;99.90
9776;DHT22;4927;52.472;13.108;2022-10-15T17:18:39;14.60;99.90
9776;DHT22;4927;52.472;13.108;2022-10-15T17:23:45;14.60;99.90
9776;DHT22;4927;52.472;13.108;2022-10-15T17:28:51;14.60;99.90
9776;DHT22;4927;52.472;13.108;2022-10-15T17:33:58;14.60;99.90
9776;DHT22;4927;52.472;13.108;2022-10-15T17:39:03;14.50;99.90
9776;DHT22;4927;52.472;13.108;2022-10-15T17:44:09;14.50;99.90
9776;DHT22;4927;52.472;13.108;2022-10-15T17:49:17;14.40;99.90
9776;DHT22;4927;52.472;13.108;2022-10-15T17:54:24;14.30;99.90
9776;DHT22;4927;52.472;13.108;2022-10-15T17:59:30;14.30;99.90
9776;DHT22;4927;52.472;13.108;2022-10-15T18:04:37;14.10;99.90
9776;DHT22;4927;52.472;13.108;2022-10-15T18:09:43;14.00;99.90
9776;DHT22;4927;52.472;13.108;2022-10-15T18:14:50;13.80;99.90
9776;DHT22;4927;52.472;13.108;2022-10-15T18:19:56;13.80;99.90
9776;DHT22;4927;52.472;13.108;2022-10-15T18:25:03;13.70;99.90
9776;DHT22;4927;52.472;13.108;2022-10-15T18:30:09;13.50;99.90
9776;DHT22;4927;52.472;13.108;2022-10-15T18:35:14;13.50;99.90
9776;DHT22;4927;52.472;13.108;2022-10-15T18:40:20;13.40;99.90
9776;DHT22;4927;52.472;13.108;2022-10-15T18:45:24;13.40;99.90
9776;DHT22;4927;52.472;13.108;2022-10-15T18:50:31;13.60;99.90
9776;DHT22;4927;52.472;13.108;2022-10-15T18:55:37;13.50;99.90
9776;DHT22;4927;52.472;13.108;2022-10-15T19:00:44;13.60;99.90
9776;DHT22;4927;52.472;13.108;2022-10-15T19:05:50;13.70;99.90
9776;DHT22;4927;52.472;13.108;2022-10-15T19:11:03;13.90;99.90
9776;DHT22;4927;52.472;13.108;2022-10-15T19:16:08;14.10;99.90
9776;DHT22;4927;52.472;13.108;2022-10-15T19:21:13;14.10;99.90
9776;DHT22;4927;52.472;13.108;2022-10-15T19:26:18;14.20;99.90
9776;DHT22;4927;52.472;13.108;2022-10-15T19:31:27;14.30;99.90
9776;DHT22;4927;52.472;13.108;2022-10-15T19:36:33;14.30;99.90
9776;DHT22;4927;52.472;13.108;2022-10-15T19:41:37;14.40;99.90
9776;DHT22;4927;52.472;13.108;2022-10-15T19:46:43;14.50;99.90
9776;DHT22;4927;52.472;13.108;2022-10-15T19:51:49;14.40;99.90
9776;DHT22;4927;52.472;13.108;2022-10-15T19:56:56;14.50;99.90
9776;DHT22;4927;52.472;13.108;2022-10-15T20:02:00;14.50;99.90
9776;DHT22;4927;52.472;13.108;2022-10-15T20:07:06;14.60;99.90
9776;DHT22;4927;52.472;13.108;2022-10-15T20:12:12;14.70;99.90
9776;DHT22;4927;52.472;13.108;2022-10-15T20:17:17;14.70;99.90
9776;DHT22;4927;52.472;13.108;2022-10-15T20:22:23;14.70;99.90
9776;DHT22;4927;52.472;13.108;2022-10-15T20:27:29;14.60;99.90
9776;DHT22;4927;52.472;13.108;2022-10-15T20:32:35;14.60;99.90
9776;DHT22;4927;52.472;13.108;2022-10-15T20:37:42;14.50;99.90
9776;DHT22;4927;52.472;13.108;2022-10-15T20:42:48;14.50;99.90
9776;DHT22;4927;52.472;13.108;2022-10-15T20:47:54;14.60;99.90
9776;DHT22;4927;52.472;13.108;2022-10-15T20:52:59;14.60;99.90
9776;DHT22;4927;52.472;13.108;2022-10-15T20:58:05;14.70;99.90
9776;DHT22;4927;52.472;13.108;2022-10-15T21:03:11;14.70;99.90
9776;DHT22;4927;52.472;13.108;2022-10-15T21:08:17;14.60;99.90
9776;DHT22;4927;52.472;13.108;2022-10-15T21:13:24;14.60;99.90
9776;DHT22;4927;52.472;13.108;2022-10-15T21:18:31;14.60;99.90
9776;DHT22;4927;52.472;13.108;2022-10-15T21:23:37;14.60;99.90
9776;DHT22;4927;52.472;13.108;2022-10-15T21:28:44;14.60;99.90
9776;DHT22;4927;52.472;13.108;2022-10-15T21:33:51;14.60;99.90
9776;DHT22;4927;52.472;13.108;2022-10-15T21:38:58;14.50;99.90
9776;DHT22;4927;52.472;13.108;2022-10-15T21:46:21;14.50;99.90
9776;DHT22;4927;52.472;13.108;2022-10-15T21:51:28;14.50;99.90
9776;DHT22;4927;52.472;13.108;2022-10-15T21:56:33;14.50;99.90
9776;DHT22;4927;52.472;13.108;2022-10-15T22:01:39;14.60;99.90
9776;DHT22;4927;52.472;13.108;2022-10-15T22:06:46;14.50;99.90
9776;DHT22;4927;52.472;13.108;2022-10-15T22:11:52;14.60;99.90
9776;DHT22;4927;52.472;13.108;2022-10-15T22:16:59;14.70;99.90
9776;DHT22;4927;52.472;13.108;2022-10-15T22:22:05;14.70;99.90
9776;DHT22;4927;52.472;13.108;2022-10-15T22:27:11;14.70;99.90
9776;DHT22;4927;52.472;13.108;2022-10-15T22:32:15;14.70;99.90
9776;DHT22;4927;52.472;13.108;2022-10-15T22:37:22;14.70;99.90
9776;DHT22;4927;52.472;13.108;2022-10-15T22:42:28;14.60;99.90
9776;DHT22;4927;52.472;13.108;2022-10-15T22:47:34;14.70;99.90
9776;DHT22;4927;52.472;13.108;2022-10-15T22:52:41;14.70;99.90
9776;DHT22;4927;52.472;13.108;2022-10-15T22:57:47;14.70;99.90
9776;DHT22;4927;52.472;13.108;2022-10-15T23:02:51;14.60;99.90
9776;DHT22;4927;52.472;13.108;2022-10-15T23:07:57;14.70;99.90
9776;DHT22;4927;52.472;13.108;2022-10-15T23:13:03;14.70;99.90
9776;DHT22;4927;52.472;13.108;2022-10-15T23:18:10;14.60;99.90
9776;DHT22;4927;52.472;13.108;2022-10-15T23:23:17;14.60;99.90
9776;DHT22;4927;52.472;13.108;2022-10-15T23:28:23;14.60;99.90
9776;DHT22;4927;52.472;13.108;2022-10-15T23:33:30;14.70;99.90
9776;DHT22;4927;52.472;13.108;2022-10-15T23:38:37;14.60;99.90
9776;DHT22;4927;52.472;13.108;2022-10-15T23:43:43;14.60;99.90
9776;DHT22;4927;52.472;13.108;2022-10-15T23:48:50;14.60;99.90
9776;DHT22;4927;52.472;13.108;2022-10-15T23:53:55;14.70;99.90
9776;DHT22;4927;52.472;13.108;2022-10-15T23:58:59;14.80;99.90
